METAR Data
IDs: Format: Raw Decoded Include TAF

Data at: 0938 UTC 18 Jan 2022

EGKB 180920Z 13003KT 060V190 9999 4000S FEW003 04/03 Q1038